Time;durP1;ratioP1;P1;durP2;ratioP2;P2;SDS_P1;SDS_P2;PMS_P1;PMS_P2;Temp;Humidity;BMP_temperature;BMP_pressure;BME280_temperature;BME280_humidity;BME280_pressure;Samples;Min_cycle;Max_cycle;Signal;HPM_P1;HPM_P2
2021/07/01 00:00:12;;;;;;;8.40;7.55;;;;;;;28.45;48.28;98967.84;5031242;28;20078;-75
2021/07/01 00:02:38;;;;;;;9.27;7.63;;;;;;;28.72;47.96;99008.44;5031563;28;20028;-76
2021/07/01 00:05:06;;;;;;;11.07;7.90;;;;;;;28.65;48.08;98999.94;5031679;28;20018;-76
2021/07/01 00:07:32;;;;;;;8.57;7.65;;;;;;;28.42;48.42;98966.56;5031229;28;20022;-75
2021/07/01 00:09:57;;;;;;;8.70;7.72;;;;;;;28.69;48.19;99005.53;5030158;28;20028;-74
2021/07/01 00:12:23;;;;;;;9.13;7.55;;;;;;;28.66;48.34;99008.88;5031371;28;20170;-77
2021/07/01 00:14:49;;;;;;;8.80;7.82;;;;;;;28.33;48.09;98957.53;5031338;28;20021;-76
2021/07/01 00:17:14;;;;;;;8.95;8.02;;;;;;;28.00;48.20;98909.97;5031436;28;20391;-76
2021/07/01 00:19:40;;;;;;;9.95;8.13;;;;;;;28.59;48.14;99000.38;5031348;28;20533;-76
2021/07/01 00:22:05;;;;;;;8.95;7.78;;;;;;;28.51;48.61;98995.69;5031272;28;20032;-76
2021/07/01 00:24:31;;;;;;;9.18;7.88;;;;;;;28.43;48.73;98998.03;5031262;28;20028;-76
2021/07/01 00:26:56;;;;;;;8.77;7.97;;;;;;;28.05;48.82;98940.50;5031221;28;20021;-77
2021/07/01 00:29:22;;;;;;;9.02;8.02;;;;;;;28.28;48.99;98981.31;5031215;28;20023;-76
2021/07/01 00:31:47;;;;;;;11.30;8.13;;;;;;;27.82;48.89;98911.75;5031220;28;20017;-75
2021/07/01 00:34:13;;;;;;;9.43;8.13;;;;;;;27.85;48.94;98922.78;5031378;28;20077;-75
2021/07/01 00:36:38;;;;;;;9.13;7.97;;;;;;;28.28;49.02;98984.00;5031233;28;20457;-75
2021/07/01 00:39:04;;;;;;;9.25;8.30;;;;;;;27.93;48.83;98936.75;5031445;28;20025;-76
2021/07/01 00:41:30;;;;;;;10.45;8.38;;;;;;;27.77;48.73;98912.69;5030995;28;20038;-77
2021/07/01 00:43:55;;;;;;;9.77;8.70;;;;;;;28.24;49.01;98978.41;5031147;28;20053;-76
2021/07/01 00:46:20;;;;;;;9.32;8.25;;;;;;;28.22;49.03;98996.03;5029923;28;20025;-76
2021/07/01 00:48:46;;;;;;;9.18;8.15;;;;;;;28.20;48.97;98993.63;5031315;28;20037;-77
2021/07/01 00:51:12;;;;;;;11.65;8.45;;;;;;;27.83;49.23;98935.06;5030070;28;20025;-77
2021/07/01 00:53:38;;;;;;;8.43;7.63;;;;;;;28.09;49.08;98984.13;5031005;28;20463;-76
2021/07/01 00:56:05;;;;;;;8.73;7.82;;;;;;;28.14;49.19;98994.88;5031300;28;20502;-77
2021/07/01 00:58:32;;;;;;;8.93;8.02;;;;;;;27.57;49.01;98907.69;5031086;28;20490;-76
2021/07/01 01:01:06;;;;;;;9.35;8.45;;;;;;;28.03;49.13;99001.63;5031239;28;20100;-77
2021/07/01 01:03:37;;;;;;;13.60;8.48;;;;;;;27.61;49.33;98943.97;5029793;28;20017;-76
2021/07/01 01:06:04;;;;;;;8.85;7.60;;;;;;;27.79;49.66;98972.84;5030991;28;20029;-76
2021/07/01 01:08:30;;;;;;;13.43;8.50;;;;;;;27.47;49.35;98921.44;5030938;28;20022;-77
2021/07/01 01:10:55;;;;;;;11.38;8.13;;;;;;;27.68;49.16;98948.97;5033836;28;20013;-77
2021/07/01 01:13:24;;;;;;;9.05;8.15;;;;;;;27.60;49.43;98939.63;5034766;28;20021;-76
2021/07/01 01:16:00;;;;;;;10.57;8.57;;;;;;;27.60;49.31;98961.31;5033478;28;20032;-76
2021/07/01 01:18:27;;;;;;;11.93;8.82;;;;;;;27.66;49.56;98970.97;5034541;28;20394;-74
2021/07/01 01:20:56;;;;;;;9.88;8.10;;;;;;;27.78;49.77;98995.66;5034327;28;20477;-75
2021/07/01 01:23:22;;;;;;;9.60;8.70;;;;;;;27.44;49.74;98949.16;5034293;28;20076;-75
2021/07/01 01:25:52;;;;;;;12.35;8.57;;;;;;;27.54;49.80;98966.03;5034489;28;20601;-76
2021/07/01 01:28:18;;;;;;;11.38;8.77;;;;;;;27.28;49.94;98926.19;5033310;28;20086;-76
2021/07/01 01:30:44;;;;;;;9.13;7.88;;;;;;;27.79;49.95;98989.13;5033033;28;20397;-76
2021/07/01 01:33:11;;;;;;;8.65;7.75;;;;;;;27.79;49.61;98989.13;5034275;28;20017;-77
2021/07/01 01:35:37;;;;;;;8.90;8.07;;;;;;;27.77;49.73;98987.84;5034440;28;20017;-75
2021/07/01 01:38:07;;;;;;;9.73;8.75;;;;;;;27.75;49.94;98992.75;5033108;28;20032;-74
2021/07/01 01:40:32;;;;;;;10.93;8.02;;;;;;;27.70;49.97;98999.09;5032984;28;20091;-76
2021/07/01 01:42:58;;;;;;;9.40;7.50;;;;;;;27.72;49.92;98998.78;5034240;28;20498;-74
2021/07/01 01:45:23;;;;;;;11.73;8.38;;;;;;;27.67;50.06;98999.69;5032630;28;20120;-77
2021/07/01 01:47:50;;;;;;;9.30;8.38;;;;;;;27.65;50.25;98995.69;5034300;28;20021;-74
2021/07/01 01:50:17;;;;;;;11.02;9.07;;;;;;;27.65;50.15;98996.50;5032841;28;20030;-75
2021/07/01 01:52:43;;;;;;;10.93;8.18;;;;;;;27.65;50.15;98995.69;5033866;28;20017;-76
2021/07/01 01:55:10;;;;;;;13.32;8.10;;;;;;;27.66;50.05;98991.88;5033813;28;20541;-76
2021/07/01 01:57:35;;;;;;;9.23;8.30;;;;;;;27.64;50.05;98985.94;5033727;28;20055;-76
2021/07/01 02:00:02;;;;;;;10.57;8.57;;;;;;;27.37;50.14;98962.31;5033714;28;20445;-77
2021/07/01 02:02:27;;;;;;;12.15;9.07;;;;;;;27.56;50.19;98983.91;5033711;28;20053;-75
2021/07/01 02:04:53;;;;;;;11.40;8.70;;;;;;;27.17;50.27;98936.41;5033637;28;20056;-75
2021/07/01 02:07:18;;;;;;;11.63;7.90;;;;;;;27.24;50.30;98953.09;5033638;28;20112;-75
2021/07/01 02:09:44;;;;;;;9.98;8.35;;;;;;;27.37;50.21;98963.13;5033606;28;20022;-76
2021/07/01 02:12:09;;;;;;;10.68;8.73;;;;;;;27.52;50.24;98984.53;5033362;28;20032;-76
2021/07/01 02:14:34;;;;;;;8.73;7.70;;;;;;;27.43;50.22;98974.66;5031996;28;20442;-76
2021/07/01 02:17:00;;;;;;;10.63;8.57;;;;;;;27.53;50.19;98991.56;5033367;28;20100;-76
2021/07/01 02:19:25;;;;;;;12.23;8.75;;;;;;;27.47;50.20;98995.44;5033355;28;20566;-76
2021/07/01 02:21:51;;;;;;;14.77;9.93;;;;;;;27.44;50.33;98998.75;5032459;28;20088;-76
2021/07/01 02:24:16;;;;;;;9.65;8.35;;;;;;;27.42;50.36;98992.03;5033132;28;20103;-75
2021/07/01 02:26:41;;;;;;;15.90;8.68;;;;;;;27.39;50.49;98995.34;5031694;28;20116;-76
2021/07/01 02:29:07;;;;;;;12.93;8.65;;;;;;;27.39;50.40;99003.47;5033038;28;20025;-75
2021/07/01 02:31:33;;;;;;;11.18;8.43;;;;;;;27.37;50.66;99011.13;5033070;28;20461;-76
2021/07/01 02:33:58;;;;;;;11.50;8.07;;;;;;;27.30;50.51;98999.88;5033033;28;20021;-75
2021/07/01 02:36:24;;;;;;;13.85;9.20;;;;;;;27.12;50.56;98977.97;5033247;28;20496;-75
2021/07/01 02:38:49;;;;;;;16.65;9.23;;;;;;;26.94;50.51;98949.03;5031773;28;20429;-76
2021/07/01 02:41:14;;;;;;;14.80;8.75;;;;;;;26.73;50.65;98928.81;5033045;28;20135;-75
2021/07/01 02:43:40;;;;;;;10.65;8.32;;;;;;;26.93;50.37;98963.69;5032968;28;20029;-76
2021/07/01 02:46:05;;;;;;;13.23;8.98;;;;;;;27.31;50.43;99010.41;5032782;28;20029;-76
2021/07/01 02:48:30;;;;;;;18.48;8.60;;;;;;;27.08;50.28;98993.22;5032797;28;20052;-75
2021/07/01 02:50:56;;;;;;;12.35;8.77;;;;;;;26.87;50.33;98962.16;5032919;28;20029;-77
2021/07/01 02:53:21;;;;;;;13.35;8.52;;;;;;;26.88;50.11;98971.91;5032842;28;20482;-76
2021/07/01 02:55:47;;;;;;;11.65;8.25;;;;;;;26.83;50.35;98978.22;5032699;28;20013;-75
2021/07/01 02:58:12;;;;;;;13.57;9.15;;;;;;;27.06;50.27;99038.78;5032566;28;20029;-75
2021/07/01 03:00:38;;;;;;;11.82;8.32;;;;;;;27.03;50.56;99020.44;5032562;28;20022;-75
2021/07/01 03:03:03;;;;;;;12.48;8.73;;;;;;;26.63;50.84;98980.44;5032760;28;20029;-75
2021/07/01 03:05:29;;;;;;;11.05;9.38;;;;;;;26.51;51.32;98961.97;5031067;28;20032;-76
2021/07/01 03:07:54;;;;;;;12.63;9.90;;;;;;;26.54;51.42;98969.50;5032375;28;20052;-75
2021/07/01 03:10:20;;;;;;;13.45;9.63;;;;;;;26.55;51.45;98969.19;5032326;28;20497;-77
2021/07/01 03:12:45;;;;;;;12.35;9.63;;;;;;;26.42;51.78;98964.56;5032508;28;20021;-77
2021/07/01 03:15:11;;;;;;;10.98;9.50;;;;;;;26.81;51.90;99017.53;5032634;28;20495;-76
2021/07/01 03:17:38;;;;;;;10.95;9.85;;;;;;;26.71;51.82;99025.81;5032497;28;20041;-75
2021/07/01 03:20:05;;;;;;;12.70;9.52;;;;;;;26.66;52.21;99018.56;5032598;28;20025;-75
2021/07/01 03:22:30;;;;;;;12.50;10.27;;;;;;;26.59;52.26;99020.84;5032306;28;20074;-75
2021/07/01 03:24:56;;;;;;;11.57;9.98;;;;;;;26.39;52.51;98992.22;5032421;28;20025;-76
2021/07/01 03:27:21;;;;;;;12.63;9.65;;;;;;;26.33;52.81;98990.69;5030946;28;20025;-75
2021/07/01 03:29:47;;;;;;;13.77;10.50;;;;;;;26.17;52.57;98964.94;5031985;28;20037;-75
2021/07/01 03:32:12;;;;;;;14.52;9.57;;;;;;;26.59;52.72;99037.09;5030813;28;20057;-75
2021/07/01 03:34:37;;;;;;;14.90;10.32;;;;;;;26.52;52.56;99020.44;5032094;28;20029;-75
2021/07/01 03:37:03;;;;;;;12.45;10.07;;;;;;;26.28;52.73;98972.59;5030543;28;20175;-76
2021/07/01 03:39:28;;;;;;;15.60;10.55;;;;;;;26.32;52.70;98980.94;5031897;28;20087;-76
2021/07/01 03:41:54;;;;;;;14.55;10.98;;;;;;;26.56;52.82;99022.25;5030371;28;20132;-75
2021/07/01 03:44:19;;;;;;;11.93;10.05;;;;;;;26.45;52.63;98996.44;5032030;28;20100;-76
2021/07/01 03:46:45;;;;;;;14.75;10.52;;;;;;;26.54;52.70;99019.03;5031873;28;20418;-75
2021/07/01 03:49:12;;;;;;;12.35;9.65;;;;;;;26.62;52.91;99028.38;5031860;28;20029;-76
2021/07/01 03:51:38;;;;;;;14.77;10.55;;;;;;;26.65;52.80;99033.22;5030346;28;20040;-74
2021/07/01 03:54:04;;;;;;;13.80;10.88;;;;;;;26.68;52.85;99037.22;5031563;28;20029;-76
2021/07/01 03:56:40;;;;;;;15.48;10.38;;;;;;;26.54;52.63;99018.22;5031730;28;20075;-75
2021/07/01 03:59:13;;;;;;;13.23;10.32;;;;;;;26.68;52.78;99039.94;5031706;28;20029;-77
2021/07/01 04:01:40;;;;;;;15.10;10.65;;;;;;;26.70;52.98;99051.28;5031694;28;20033;-75
2021/07/01 04:04:05;;;;;;;15.90;9.77;;;;;;;26.79;52.88;99065.78;5031531;28;20033;-76
2021/07/01 04:06:31;;;;;;;15.15;10.68;;;;;;;26.55;52.84;99022.56;5031544;28;20453;-76
2021/07/01 04:08:57;;;;;;;15.07;10.35;;;;;;;26.60;52.76;99036.81;5031482;28;20479;-77
2021/07/01 04:11:22;;;;;;;13.27;9.95;;;;;;;26.73;52.78;99051.50;5031355;28;20033;-76
2021/07/01 04:13:48;;;;;;;13.05;10.13;;;;;;;26.45;52.73;99012.69;5031480;28;20034;-75
2021/07/01 04:16:13;;;;;;;13.70;10.68;;;;;;;26.47;53.17;99026.72;5031481;28;20414;-74
2021/07/01 04:18:38;;;;;;;17.13;11.00;;;;;;;26.37;53.23;99021.47;5030089;28;20038;-76
2021/07/01 04:21:04;;;;;;;18.02;11.38;;;;;;;26.34;52.87;99022.06;5031470;28;20520;-76
2021/07/01 04:23:30;;;;;;;14.30;11.40;;;;;;;26.38;52.91;99017.66;5031504;28;20478;-74
2021/07/01 04:25:55;;;;;;;17.42;11.07;;;;;;;26.72;52.73;99060.72;5031323;28;20026;-76
2021/07/01 04:28:21;;;;;;;11.80;10.25;;;;;;;26.07;52.93;98952.34;5031276;28;20068;-76
2021/07/01 04:30:47;;;;;;;16.55;10.57;;;;;;;26.68;52.85;99050.78;5031352;28;20396;-76
2021/07/01 04:33:12;;;;;;;17.60;11.10;;;;;;;26.83;52.68;99080.34;5029958;28;20026;-76
2021/07/01 04:35:38;;;;;;;13.52;10.75;;;;;;;26.55;52.54;99038.78;5031163;28;20032;-76
2021/07/01 04:38:03;;;;;;;18.50;11.25;;;;;;;26.89;52.53;99077.25;5031248;28;20032;-76
2021/07/01 04:40:29;;;;;;;15.35;10.50;;;;;;;26.63;52.54;99050.84;5030896;28;20033;-76
2021/07/01 04:42:54;;;;;;;14.40;10.50;;;;;;;26.78;52.50;99062.28;5031163;28;20410;-77
2021/07/01 04:45:20;;;;;;;13.00;10.70;;;;;;;26.88;52.47;99070.22;5033535;28;20033;-76
2021/07/01 04:47:45;;;;;;;13.32;10.63;;;;;;;26.73;52.45;99045.28;5035172;28;20160;-76
2021/07/01 04:50:11;;;;;;;13.85;11.23;;;;;;;26.91;52.38;99074.25;5035097;28;20025;-76
2021/07/01 04:52:36;;;;;;;12.00;10.68;;;;;;;26.65;52.43;99030.50;5035426;28;20029;-76
2021/07/01 04:55:03;;;;;;;12.82;10.57;;;;;;;26.96;52.68;99079.59;5035283;28;20013;-77
2021/07/01 04:57:28;;;;;;;13.52;10.95;;;;;;;27.00;52.74;99072.50;5034971;28;20033;-76
2021/07/01 04:59:54;;;;;;;15.18;12.65;;;;;;;26.55;52.76;99000.88;5035126;28;20501;-75
2021/07/01 05:02:19;;;;;;;14.70;12.25;;;;;;;27.06;52.66;99084.88;5033743;28;20022;-74
2021/07/01 05:04:45;;;;;;;15.90;12.25;;;;;;;26.76;52.76;99040.09;5034797;28;20061;-76
2021/07/01 05:07:10;;;;;;;15.57;12.35;;;;;;;26.74;52.72;99025.22;5033458;28;20087;-76
2021/07/01 05:09:36;;;;;;;15.15;12.50;;;;;;;27.15;52.89;99084.97;5035015;28;20112;-75
2021/07/01 05:12:01;;;;;;;18.23;12.20;;;;;;;26.64;53.01;99001.81;5034693;28;20026;-76
2021/07/01 05:14:27;;;;;;;18.95;12.77;;;;;;;27.12;53.11;99053.06;5033463;28;20102;-77
2021/07/01 05:16:52;;;;;;;14.43;12.32;;;;;;;27.33;53.01;99080.59;5033259;28;20022;-73
2021/07/01 05:19:18;;;;;;;22.17;11.57;;;;;;;26.96;53.08;99019.19;5032996;28;20029;-74
2021/07/01 05:21:43;;;;;;;19.05;12.27;;;;;;;27.34;53.08;99085.72;5034391;28;20021;-77
2021/07/01 05:24:08;;;;;;;19.55;14.07;;;;;;;27.04;53.26;99019.31;5034462;28;20112;-76
2021/07/01 05:26:34;;;;;;;18.00;13.65;;;;;;;26.95;53.12;99012.16;5034361;28;20075;-75
2021/07/01 05:29:00;;;;;;;15.82;12.88;;;;;;;26.93;53.09;99007.03;5033108;28;20030;-77
2021/07/01 05:31:25;;;;;;;13.93;12.10;;;;;;;27.01;53.26;99016.41;5034344;28;20075;-76
2021/07/01 05:33:50;;;;;;;15.90;12.93;;;;;;;27.12;53.43;99031.38;5034317;28;20033;-76
2021/07/01 05:36:16;;;;;;;15.10;13.13;;;;;;;27.04;53.77;99026.66;5034411;28;20025;-76
2021/07/01 05:38:41;;;;;;;13.63;12.32;;;;;;;26.75;54.04;98988.91;5033005;28;20025;-75
2021/07/01 05:41:07;;;;;;;21.30;13.88;;;;;;;26.99;53.93;99032.16;5034428;28;20057;-76
2021/07/01 05:43:32;;;;;;;14.13;12.65;;;;;;;26.99;54.02;99032.97;5050335;28;20033;-76
2021/07/01 05:45:58;;;;;;;13.93;12.50;;;;;;;26.98;54.03;99022.41;5054193;28;20032;-77
2021/07/01 05:48:25;;;;;;;20.95;13.70;;;;;;;27.32;54.10;99079.00;5051013;28;20029;-75
2021/07/01 05:51:00;;;;;;;14.82;13.32;;;;;;;27.34;54.19;99071.34;5037149;28;20060;-76
2021/07/01 05:53:29;;;;;;;16.48;14.45;;;;;;;27.28;54.22;99046.25;5040212;28;20113;-75
2021/07/01 05:55:54;;;;;;;21.38;14.43;;;;;;;27.44;54.32;99068.44;5044315;28;20037;-74
2021/07/01 05:58:20;;;;;;;20.70;13.98;;;;;;;26.97;54.40;98982.84;5044593;28;20025;-74
2021/07/01 06:00:45;;;;;;;16.48;14.88;;;;;;;27.26;54.53;99020.56;5042292;28;20144;-76
2021/07/01 06:03:11;;;;;;;15.30;13.27;;;;;;;27.51;54.64;99058.03;5033612;28;20021;-74
2021/07/01 06:05:42;;;;;;;17.80;14.23;;;;;;;27.47;54.78;99052.38;5056961;28;20067;-76
2021/07/01 06:08:09;;;;;;;16.38;14.35;;;;;;;27.16;54.61;98995.25;5052436;28;20032;-76
2021/07/01 06:10:39;;;;;;;16.55;14.63;;;;;;;27.31;54.69;99007.69;5053583;28;20039;-76
2021/07/01 06:13:06;;;;;;;24.52;17.42;;;;;;;27.24;54.28;98977.47;5050743;28;20033;-75
2021/07/01 06:15:33;;;;;;;19.35;17.17;;;;;;;27.49;54.12;99006.78;5046009;28;20070;-76
2021/07/01 06:18:00;;;;;;;21.23;18.98;;;;;;;27.62;54.10;99013.38;5047398;28;20112;-76
2021/07/01 06:20:25;;;;;;;20.90;16.48;;;;;;;27.45;54.28;98986.00;5051754;28;20084;-76
2021/07/01 06:22:52;;;;;;;18.55;16.75;;;;;;;27.75;54.05;99026.13;5052677;28;20085;-74
2021/07/01 06:25:18;;;;;;;24.60;22.25;;;;;;;27.77;53.87;99006.81;5052351;28;20043;-75
2021/07/01 06:27:44;;;;;;;19.08;17.13;;;;;;;27.75;53.93;99000.91;5047266;28;20029;-76
2021/07/01 06:30:21;;;;;;;19.42;15.00;;;;;;;28.04;53.67;99035.81;5037971;28;20088;-75
2021/07/01 06:32:51;;;;;;;16.17;14.57;;;;;;;28.08;53.75;99058.50;5051741;28;20035;-74
2021/07/01 06:35:19;;;;;;;16.15;14.57;;;;;;;28.05;54.17;99064.56;5030998;28;20075;-73
2021/07/01 06:37:46;;;;;;;15.93;14.48;;;;;;;27.63;53.59;98979.72;5033997;28;20452;-73
2021/07/01 06:40:13;;;;;;;16.42;14.38;;;;;;;27.85;53.76;99016.94;5050688;28;20029;-76
2021/07/01 06:42:52;;;;;;;19.70;15.13;;;;;;;28.21;53.70;99057.69;5046055;28;20060;-76
2021/07/01 06:45:18;;;;;;;17.77;16.17;;;;;;;27.99;53.37;99014.22;5049363;28;20052;-75
2021/07/01 06:47:48;;;;;;;17.30;15.07;;;;;;;27.92;53.81;98992.13;5038191;28;20049;-76
2021/07/01 06:50:16;;;;;;;15.10;13.70;;;;;;;28.21;53.20;99024.31;5036323;28;20565;-76
2021/07/01 06:52:45;;;;;;;18.20;15.38;;;;;;;28.30;53.27;99022.53;5039540;28;20413;-76
2021/07/01 06:55:15;;;;;;;16.75;13.95;;;;;;;28.09;52.79;98975.97;5035527;28;20504;-76
2021/07/01 06:57:42;;;;;;;15.80;13.50;;;;;;;28.61;52.62;99044.31;5044859;28;20036;-76
2021/07/01 07:00:10;;;;;;;16.90;14.43;;;;;;;28.67;52.08;99037.66;5038030;28;20026;-75
2021/07/01 07:02:36;;;;;;;15.88;14.20;;;;;;;28.34;52.04;98971.91;5035019;28;20466;-77
2021/07/01 07:05:07;;;;;;;16.23;13.05;;;;;;;28.88;51.94;99030.63;5034455;28;20033;-76
2021/07/01 07:07:33;;;;;;;16.13;14.30;;;;;;;28.99;51.95;99033.91;5049231;28;20032;-75
2021/07/01 07:10:03;;;;;;;16.15;14.40;;;;;;;29.08;51.36;99034.75;5042527;28;22150;-75
2021/07/01 07:12:30;;;;;;;16.35;14.70;;;;;;;29.16;51.19;99027.75;5040796;28;20418;-76
2021/07/01 07:14:56;;;;;;;17.05;14.68;;;;;;;29.24;51.05;99033.22;5044738;28;20036;-74
2021/07/01 07:17:27;;;;;;;18.02;15.98;;;;;;;29.35;50.63;99031.03;5031723;28;20479;-77
2021/07/01 07:19:55;;;;;;;20.83;18.70;;;;;;;28.82;50.55;98949.50;5031987;28;20034;-77
2021/07/01 07:22:21;;;;;;;17.27;15.57;;;;;;;29.40;50.63;99017.28;5031544;28;20037;-75
2021/07/01 07:24:51;;;;;;;18.23;16.35;;;;;;;29.28;50.28;98995.34;5031887;28;20506;-77
2021/07/01 07:27:25;;;;;;;16.63;14.30;;;;;;;29.05;50.74;98972.84;5033808;28;20025;-76
2021/07/01 07:29:51;;;;;;;18.75;14.35;;;;;;;29.22;50.88;98988.44;5042759;28;20443;-77
2021/07/01 07:32:17;;;;;;;16.67;14.40;;;;;;;29.34;50.58;98981.28;5041835;28;20068;-75
2021/07/01 07:34:42;;;;;;;19.65;17.20;;;;;;;29.39;50.29;98970.25;5031088;28;20049;-76
2021/07/01 07:37:08;;;;;;;18.58;16.25;;;;;;;29.59;50.59;98992.56;5030906;28;20071;-75
2021/07/01 07:39:33;;;;;;;18.40;14.50;;;;;;;29.67;50.14;98987.16;5034551;28;20136;-77
2021/07/01 07:41:59;;;;;;;17.75;15.85;;;;;;;29.80;50.29;98992.81;5046383;28;20071;-77
2021/07/01 07:44:25;;;;;;;19.63;15.00;;;;;;;30.01;49.69;99024.56;5030141;28;20029;-77
2021/07/01 07:46:52;;;;;;;25.77;15.30;;;;;;;30.22;49.47;99022.00;5057146;28;20048;-76
2021/07/01 07:49:18;;;;;;;16.48;14.82;;;;;;;30.25;49.26;99009.66;5051856;28;20415;-76
2021/07/01 07:51:49;;;;;;;21.90;16.15;;;;;;;30.21;48.98;98979.56;5059109;28;20060;-76
2021/07/01 07:54:22;;;;;;;19.30;15.75;;;;;;;30.50;48.99;99017.06;5051079;28;20033;-76
2021/07/01 07:56:50;;;;;;;18.13;15.20;;;;;;;30.25;49.05;98988.69;5040640;28;20033;-76
2021/07/01 07:59:20;;;;;;;16.10;13.38;;;;;;;30.62;48.81;99014.50;5041630;28;20070;-74
2021/07/01 08:01:49;;;;;;;15.80;14.20;;;;;;;30.42;48.75;98974.25;5034116;28;20029;-78
2021/07/01 08:04:17;;;;;;;18.42;15.88;;;;;;;30.37;48.75;98966.25;5037874;28;20271;-74
2021/07/01 08:06:45;;;;;;;20.38;16.60;;;;;;;30.72;48.40;99016.09;5042602;28;20094;-75
2021/07/01 08:09:13;;;;;;;15.95;14.35;;;;;;;30.75;48.83;99009.19;5033716;28;20083;-75
2021/07/01 08:11:41;;;;;;;18.92;15.80;;;;;;;30.49;48.41;98971.06;5032722;28;20032;-77
2021/07/01 08:14:07;;;;;;;18.15;13.85;;;;;;;29.91;48.57;98863.44;5031022;28;20029;-77
2021/07/01 08:16:32;;;;;;;15.80;14.18;;;;;;;30.76;48.17;98984.34;5040076;28;20079;-74
2021/07/01 08:18:59;;;;;;;16.23;14.52;;;;;;;31.05;48.08;99015.53;5050278;28;20035;-76
2021/07/01 08:21:26;;;;;;;19.80;16.92;;;;;;;30.90;47.48;98987.66;5041397;28;20032;-74
2021/07/01 08:23:52;;;;;;;18.88;15.80;;;;;;;30.97;47.64;98987.16;5042179;28;20025;-77
2021/07/01 08:26:18;;;;;;;19.63;15.63;;;;;;;30.71;47.67;98934.66;5033209;28;20029;-75
2021/07/01 08:28:44;;;;;;;18.30;16.30;;;;;;;30.99;47.31;98966.63;5031233;28;20082;-74
2021/07/01 08:31:15;;;;;;;18.08;16.27;;;;;;;31.39;47.49;99006.44;5046714;28;20101;-76
2021/07/01 08:33:42;;;;;;;17.15;14.93;;;;;;;31.29;47.22;98972.97;5050138;28;20506;-75
2021/07/01 08:36:15;;;;;;;16.85;15.05;;;;;;;31.52;47.25;98989.03;5051904;28;20512;-74
2021/07/01 08:38:41;;;;;;;16.58;14.82;;;;;;;31.75;46.89;99005.94;5050648;28;20029;-75
2021/07/01 08:41:16;;;;;;;17.23;14.55;;;;;;;31.87;46.76;99006.03;5050679;28;20051;-76
2021/07/01 08:43:53;;;;;;;16.92;15.02;;;;;;;31.97;46.28;99002.13;5050679;28;20087;-76
2021/07/01 08:46:26;;;;;;;20.27;15.95;;;;;;;31.92;46.44;98994.91;5050408;28;20078;-75
2021/07/01 08:49:08;;;;;;;18.38;14.23;;;;;;;31.99;46.52;98994.41;5050697;28;20032;-76
2021/07/01 08:51:46;;;;;;;17.00;14.73;;;;;;;31.81;46.31;98948.09;5049348;28;20028;-76
2021/07/01 08:54:32;;;;;;;18.95;14.40;;;;;;;31.86;45.98;98931.50;5050231;28;20021;-76
2021/07/01 08:56:58;;;;;;;17.40;15.57;;;;;;;32.29;45.53;98962.38;5047215;28;20024;-76
2021/07/01 08:59:26;;;;;;;18.25;15.05;;;;;;;32.26;45.54;98944.72;5046456;28;20017;-75
2021/07/01 09:02:01;;;;;;;19.02;16.10;;;;;;;32.66;45.34;98983.22;5042072;28;20173;-76
2021/07/01 09:04:38;;;;;;;23.98;21.50;;;;;;;32.76;45.16;98988.28;5048415;28;20036;-76
2021/07/01 09:07:04;;;;;;;23.67;21.10;;;;;;;32.84;44.40;98984.69;5045542;28;20021;-76
2021/07/01 09:09:33;;;;;;;21.98;17.65;;;;;;;32.73;44.66;98941.69;5048466;28;20409;-76
2021/07/01 09:12:01;;;;;;;24.40;19.35;;;;;;;32.98;44.41;98962.47;5049024;28;20019;-75
2021/07/01 09:14:29;;;;;;;18.73;16.80;;;;;;;33.28;43.86;98982.22;5047182;28;20047;-75
2021/07/01 09:16:55;;;;;;;19.33;16.00;;;;;;;33.29;43.65;98961.91;5053549;28;20025;-76
2021/07/01 09:19:23;;;;;;;20.40;16.58;;;;;;;33.46;43.66;98974.63;5041839;28;20037;-77
2021/07/01 09:21:50;;;;;;;17.50;14.60;;;;;;;33.62;42.79;98978.25;5051744;28;20041;-75
2021/07/01 09:24:16;;;;;;;22.70;13.70;;;;;;;33.49;42.26;98938.34;5040967;28;20476;-77
2021/07/01 09:26:47;;;;;;;21.45;14.13;;;;;;;33.80;42.75;98968.63;5045369;28;20021;-76
2021/07/01 09:29:12;;;;;;;20.00;12.95;;;;;;;33.95;42.23;98974.56;5040674;28;20741;-75
2021/07/01 09:31:40;;;;;;;23.13;13.90;;;;;;;34.05;41.47;98963.91;5048062;28;20025;-75
2021/07/01 09:34:06;;;;;;;18.67;14.63;;;;;;;34.06;41.79;98961.97;5055424;28;20036;-76
2021/07/01 09:36:32;;;;;;;18.95;14.40;;;;;;;34.24;41.64;98963.28;5050872;28;20036;-75
2021/07/01 09:39:01;;;;;;;20.23;13.43;;;;;;;34.11;41.19;98920.63;5048652;28;20057;-75
2021/07/01 09:41:27;;;;;;;15.38;13.65;;;;;;;34.25;40.47;98920.25;5038552;28;20505;-76
2021/07/01 09:43:52;;;;;;;15.73;12.55;;;;;;;34.46;40.98;98947.47;5046091;28;20037;-75
2021/07/01 09:46:21;;;;;;;16.52;12.93;;;;;;;34.46;40.86;98915.38;5043337;28;20104;-76
2021/07/01 09:48:50;;;;;;;15.10;12.80;;;;;;;34.63;40.27;98915.03;5036872;28;20053;-77
2021/07/01 09:51:17;;;;;;;16.00;14.43;;;;;;;35.05;39.42;98947.47;5038085;28;20020;-76
2021/07/01 09:53:48;;;;;;;16.30;14.48;;;;;;;34.90;39.34;98896.13;5040588;28;20104;-76
2021/07/01 09:56:38;;;;;;;20.88;18.70;;;;;;;35.14;39.03;98898.69;5049786;28;20024;-74
2021/07/01 09:59:13;;;;;;;23.80;21.55;;;;;;;35.58;38.50;98940.50;5033258;28;20033;-75
2021/07/01 10:01:38;;;;;;;20.33;17.73;;;;;;;35.78;38.14;98937.78;5041571;28;20026;-76
2021/07/01 10:04:05;;;;;;;18.77;15.52;;;;;;;35.93;37.90;98939.72;5041075;28;20025;-74
2021/07/01 10:06:31;;;;;;;16.08;13.52;;;;;;;36.00;37.50;98930.81;5050800;28;20029;-76
2021/07/01 10:08:56;;;;;;;16.70;14.05;;;;;;;36.07;37.65;98926.25;5040014;28;20132;-74
2021/07/01 10:11:39;;;;;;;15.20;13.48;;;;;;;36.18;36.82;98935.50;5041630;28;20033;-75
2021/07/01 10:14:12;;;;;;;13.85;11.90;;;;;;;36.13;36.87;98922.06;5039382;28;20106;-74
2021/07/01 10:16:39;;;;;;;15.68;14.07;;;;;;;36.20;37.01;98910.41;5049627;28;20108;-74
2021/07/01 10:19:08;;;;;;;14.82;12.35;;;;;;;36.48;36.80;98933.00;5066338;28;20086;-76
2021/07/01 10:21:34;;;;;;;15.18;11.10;;;;;;;36.34;36.57;98871.41;5037655;28;20052;-76
2021/07/01 10:24:11;;;;;;;13.75;9.63;;;;;;;36.78;35.03;98911.13;5040620;28;20029;-76
2021/07/01 10:26:41;;;;;;;13.88;9.70;;;;;;;36.90;34.51;98910.16;5035889;28;20033;-75
2021/07/01 10:29:07;;;;;;;;;;;;;;;36.96;34.55;98911.41;5043184;28;20057;-76
2021/07/01 10:31:56;;;;;;;18.65;9.48;;;;;;;37.03;34.41;98881.25;5037804;28;19962;-75
2021/07/01 10:34:24;;;;;;;15.40;10.05;;;;;;;37.33;33.68;98902.59;5037140;28;20025;-74
2021/07/01 10:37:14;;;;;;;16.80;8.38;;;;;;;37.38;33.19;98892.03;5034447;28;20033;-76
2021/07/01 10:39:40;;;;;;;20.45;11.05;;;;;;;37.50;32.71;98885.50;5041588;28;20033;-76
2021/07/01 10:42:05;;;;;;;12.77;9.90;;;;;;;37.41;32.60;98869.28;5030113;28;20571;-75
2021/07/01 10:44:31;;;;;;;16.30;10.25;;;;;;;37.20;32.21;98841.41;5037760;28;20072;-74
2021/07/01 10:46:57;;;;;;;16.85;9.38;;;;;;;36.85;32.07;98789.41;5034635;28;20025;-77
2021/07/01 10:49:36;;;;;;;13.23;10.35;;;;;;;37.45;32.34;98877.59;5052911;28;20033;-74
2021/07/01 10:52:05;;;;;;;15.13;9.82;;;;;;;37.56;32.30;98880.47;5037884;28;20029;-75
2021/07/01 10:54:30;;;;;;;17.55;9.10;;;;;;;37.18;31.40;98839.03;5035342;28;20108;-75
2021/07/01 10:57:22;;;;;;;12.45;9.60;;;;;;;37.10;31.04;98803.50;5031339;28;20116;-75
2021/07/01 10:59:52;;;;;;;17.20;10.52;;;;;;;37.62;31.33;98879.78;5048396;28;20484;-75
2021/07/01 11:02:29;;;;;;;15.93;10.85;;;;;;;37.41;31.29;98805.13;5033768;28;20386;-75
2021/07/01 11:04:58;;;;;;;15.27;13.02;;;;;;;37.80;31.29;98855.22;5042899;28;20033;-75
2021/07/01 11:07:24;;;;;;;17.73;12.95;;;;;;;37.63;31.62;98859.31;5044528;28;20013;-74
2021/07/01 11:09:54;;;;;;;14.30;12.40;;;;;;;37.37;32.67;98862.13;5053248;28;20021;-75
2021/07/01 11:12:25;;;;;;;17.15;15.45;;;;;;;37.03;33.70;98847.44;5035261;28;20083;-75
2021/07/01 11:14:54;;;;;;;18.33;14.07;;;;;;;35.97;34.19;98759.22;5056934;28;20283;-78
2021/07/01 11:17:49;;;;;;;13.18;11.52;;;;;;;36.27;34.80;98850.06;5033006;28;20025;-75
2021/07/01 11:20:16;;;;;;;12.65;10.70;;;;;;;35.94;35.12;98854.19;5029068;28;20048;-76
2021/07/01 11:22:53;;;;;;;14.57;10.20;;;;;;;35.57;34.82;98840.03;5039405;28;20025;-76